^^
Peaceful Hills Weather Station Historical Data
 
Daily Summary for March 03, 2021 Units:  Both    English   Metric
Daily Weekly Monthly Yearly
  High: Low: Average:
Temperature: 68.2 °F /  20.1 °C 29.6 °F /  -1.3 °C 48.3 °F /  9.1 °C
Dew Point: 41.2 °F /  5.1 °C 27.6 °F /  -2.4 °C 34.4 °F /  1.3 °C
Humidity: 92% 30% 65%
Wind Speed: 2.2mph /  3.5km/h - 0.1mph /  0.2km/h
Wind Gust: 10mph /  16.1km/h - -
Wind- - SW
Pressure: 30.24 in /  1023.9 hPa 30.11 in /  1019.5 hPa -
Precipitation: 0.00 in /  0 mm    
 
 
Tabular Data for March 03, 2021
Time Temperature Dew Point Pressure Wind Wind Speed Wind Gust Humidity Rainfall Rate (Hourly)
00:04 36.2 °F /  2.3 °C 32.4 °F /  0.2 °C 30.20in /  1022.6hPa Calm     86% 0.00in /  0mm
00:09 35.9 °F /  2.2 °C 32.2 °F /  0.1 °C 30.20in /  1022.6hPa Calm     86.4% 0.00in /  0mm
00:14 35.6 °F /  2 °C 32.1 °F /  0.1 °C 30.19in /  1022.2hPa Calm     87% 0.00in /  0mm
00:19 35.4 °F /  1.9 °C 32.2 °F /  0.1 °C 30.19in /  1022.2hPa Calm     88% 0.00in /  0mm
00:24 35.2 °F /  1.8 °C 32 °F /  0 °C 30.19in /  1022.2hPa Calm     88% 0.00in /  0mm
00:29 35 °F /  1.7 °C 31.8 °F /  -0.1 °C 30.19in /  1022.2hPa SSW 0.4mph /  0.6km/h 2mph /  3.2km/h 88% 0.00in /  0mm
00:34 34.8 °F /  1.6 °C 31.9 °F /  -0.1 °C 30.19in /  1022.2hPa Calm     88.8% 0.00in /  0mm
00:39 34.8 °F /  1.6 °C 31.9 °F /  -0.1 °C 30.19in /  1022.2hPa Calm     89% 0.00in /  0mm
00:44 34.6 °F /  1.4 °C 31.7 °F /  -0.2 °C 30.19in /  1022.2hPa Calm     89% 0.00in /  0mm
00:49 34.4 °F /  1.3 °C 31.5 °F /  -0.3 °C 30.19in /  1022.2hPa Calm     89% 0.00in /  0mm
00:54 34.2 °F /  1.2 °C 31.1 °F /  -0.5 °C 30.19in /  1022.2hPa Calm     88.4% 0.00in /  0mm
00:59 33.9 °F /  1.1 °C 31 °F /  -0.6 °C 30.19in /  1022.2hPa Calm     89% 0.00in /  0mm
01:04 33.7 °F /  0.9 °C 30.8 °F /  -0.7 °C 30.19in /  1022.2hPa Calm     89% 0.00in /  0mm
01:09 33.6 °F /  0.9 °C 31 °F /  -0.6 °C 30.18in /  1021.9hPa Calm     90% 0.00in /  0mm
01:14 33.6 °F /  0.9 °C 31.1 °F /  -0.5 °C 30.18in /  1021.9hPa Calm     90.2% 0.00in /  0mm
01:19 33.7 °F /  0.9 °C 31.3 °F /  -0.4 °C 30.18in /  1021.9hPa SSW 0.4mph /  0.6km/h 4mph /  6.4km/h 90.4% 0.00in /  0mm
01:24 33.8 °F /  1 °C 31.4 °F /  -0.3 °C 30.17in /  1021.6hPa Calm   4mph /  6.4km/h 90.6% 0.00in /  0mm
01:29 33.8 °F /  1 °C 31.4 °F /  -0.3 °C 30.18in /  1021.9hPa Calm     90.8% 0.00in /  0mm
01:34 33.6 °F /  0.9 °C 31 °F /  -0.6 °C 30.18in /  1021.9hPa Calm     90% 0.00in /  0mm
01:39 33.3 °F /  0.7 °C 30.7 °F /  -0.7 °C 30.18in /  1021.9hPa Calm     90% 0.00in /  0mm
01:44 33.1 °F /  0.6 °C 30.5 °F /  -0.8 °C 30.18in /  1021.9hPa Calm     90% 0.00in /  0mm
01:49 32.9 °F /  0.5 °C 30.3 °F /  -0.9 °C 30.17in /  1021.6hPa Calm     90% 0.00in /  0mm
01:54 32.8 °F /  0.4 °C 30.4 °F /  -0.9 °C 30.17in /  1021.6hPa Calm     90.6% 0.00in /  0mm
01:59 32.6 °F /  0.3 °C 30.3 °F /  -0.9 °C 30.17in /  1021.6hPa Calm     91% 0.00in /  0mm
02:04 32.4 °F /  0.2 °C 30.1 °F /  -1.1 °C 30.17in /  1021.6hPa Calm     91% 0.00in /  0mm
02:09 32.2 °F /  0.1 °C 29.9 °F /  -1.2 °C 30.17in /  1021.6hPa Calm     91% 0.00in /  0mm
02:14 32.2 °F /  0.1 °C 29.9 °F /  -1.2 °C 30.17in /  1021.6hPa SW 0.4mph /  0.6km/h 4mph /  6.4km/h 91% 0.00in /  0mm
02:19 32.1 °F /  0.1 °C 29.8 °F /  -1.2 °C 30.17in /  1021.6hPa Calm   4mph /  6.4km/h 91% 0.00in /  0mm
02:24 31.9 °F /  -0.1 °C 29.6 °F /  -1.3 °C 30.17in /  1021.6hPa Calm     91% 0.00in /  0mm
02:29 31.7 °F /  -0.2 °C 29.4 °F /  -1.4 °C 30.17in /  1021.6hPa Calm     91% 0.00in /  0mm
02:34 31.5 °F /  -0.3 °C 29.2 °F /  -1.6 °C 30.17in /  1021.6hPa Calm     91% 0.00in /  0mm
02:39 31.4 °F /  -0.3 °C 29.1 °F /  -1.6 °C 30.17in /  1021.6hPa Calm     91% 0.00in /  0mm
02:44 31.2 °F /  -0.4 °C 28.9 °F /  -1.7 °C 30.17in /  1021.6hPa Calm     91% 0.00in /  0mm
02:49 31.1 °F /  -0.5 °C 28.8 °F /  -1.8 °C 30.17in /  1021.6hPa Calm     91% 0.00in /  0mm
02:54 31.1 °F /  -0.5 °C 28.8 °F /  -1.8 °C 30.17in /  1021.6hPa Calm     91% 0.00in /  0mm
02:59 31 °F /  -0.6 °C 28.7 °F /  -1.8 °C 30.17in /  1021.6hPa Calm     91% 0.00in /  0mm
03:04 30.8 °F /  -0.7 °C 28.5 °F /  -1.9 °C 30.17in /  1021.6hPa Calm     91% 0.00in /  0mm
03:09 30.8 °F /  -0.7 °C 28.8 °F /  -1.8 °C 30.17in /  1021.6hPa Calm     92% 0.00in /  0mm
03:14 30.7 °F /  -0.7 °C 28.7 °F /  -1.8 °C 30.17in /  1021.6hPa Calm     92% 0.00in /  0mm
03:19 30.5 °F /  -0.8 °C 28.4 °F /  -2 °C 30.17in /  1021.6hPa Calm     91.4% 0.00in /  0mm
03:24 30.4 °F /  -0.9 °C 28.4 °F /  -2 °C 30.17in /  1021.6hPa Calm     92% 0.00in /  0mm
03:29 30.4 °F /  -0.9 °C 28.4 °F /  -2 °C 30.17in /  1021.6hPa Calm     92% 0.00in /  0mm
03:34 30.3 °F /  -0.9 °C 28.3 °F /  -2.1 °C 30.17in /  1021.6hPa Calm     92% 0.00in /  0mm
03:39 30.2 °F /  -1 °C 28.2 °F /  -2.1 °C 30.17in /  1021.6hPa Calm     92% 0.00in /  0mm
03:44 30.2 °F /  -1 °C 28.2 °F /  -2.1 °C 30.17in /  1021.6hPa Calm     92% 0.00in /  0mm
03:49 30.1 °F /  -1.1 °C 28.1 °F /  -2.2 °C 30.18in /  1021.9hPa Calm     92% 0.00in /  0mm
03:54 30.1 °F /  -1.1 °C 28.1 °F /  -2.2 °C 30.18in /  1021.9hPa Calm     92% 0.00in /  0mm
03:59 30 °F /  -1.1 °C 28 °F /  -2.2 °C 30.18in /  1021.9hPa Calm     92% 0.00in /  0mm
04:04 30 °F /  -1.1 °C 28 °F /  -2.2 °C 30.18in /  1021.9hPa Calm     92% 0.00in /  0mm
04:09 30 °F /  -1.1 °C 28 °F /  -2.2 °C 30.18in /  1021.9hPa Calm     92% 0.00in /  0mm
04:14 30 °F /  -1.1 °C 28 °F /  -2.2 °C 30.18in /  1021.9hPa Calm     92% 0.00in /  0mm
04:19 30.1 °F /  -1.1 °C 28.1 °F /  -2.2 °C 30.18in /  1021.9hPa Calm     92% 0.00in /  0mm
04:24 30.1 °F /  -1.1 °C 28.1 °F /  -2.2 °C 30.19in /  1022.2hPa Calm     92% 0.00in /  0mm
04:29 30.1 °F /  -1.1 °C 28.1 °F /  -2.2 °C 30.19in /  1022.2hPa Calm     92% 0.00in /  0mm
04:34 30 °F /  -1.1 °C 28 °F /  -2.2 °C 30.19in /  1022.2hPa Calm     92% 0.00in /  0mm
04:44 29.9 °F /  -1.2 °C 27.9 °F /  -2.3 °C 30.19in /  1022.2hPa Calm     92% 0.00in /  0mm
04:49 29.9 °F /  -1.2 °C 27.9 °F /  -2.3 °C 30.19in /  1022.2hPa Calm     92% 0.00in /  0mm
04:54 29.8 °F /  -1.2 °C 27.8 °F /  -2.3 °C 30.19in /  1022.2hPa Calm     92% 0.00in /  0mm
04:59 29.8 °F /  -1.2 °C 27.8 °F /  -2.3 °C 30.19in /  1022.2hPa Calm     92% 0.00in /  0mm
05:04 29.7 °F /  -1.3 °C 27.7 °F /  -2.4 °C 30.19in /  1022.2hPa Calm     92% 0.00in /  0mm
05:09 29.7 °F /  -1.3 °C 27.7 °F /  -2.4 °C 30.19in /  1022.2hPa Calm     92% 0.00in /  0mm
05:14 29.7 °F /  -1.3 °C 27.7 °F /  -2.4 °C 30.19in /  1022.2hPa Calm     92% 0.00in /  0mm
05:19 29.6 °F /  -1.3 °C 27.6 °F /  -2.4 °C 30.19in /  1022.2hPa Calm     92% 0.00in /  0mm
05:24 29.6 °F /  -1.3 °C 27.6 °F /  -2.4 °C 30.19in /  1022.2hPa Calm     92% 0.00in /  0mm
05:29 29.8 °F /  -1.2 °C 27.8 °F /  -2.3 °C 30.19in /  1022.2hPa Calm     92% 0.00in /  0mm
05:34 29.7 °F /  -1.3 °C 27.7 °F /  -2.4 °C 30.19in /  1022.2hPa Calm     92% 0.00in /  0mm
05:39 29.6 °F /  -1.3 °C 27.6 °F /  -2.4 °C 30.19in /  1022.2hPa Calm     92% 0.00in /  0mm
05:44 29.6 °F /  -1.3 °C 27.6 °F /  -2.4 °C 30.20in /  1022.6hPa Calm     92% 0.00in /  0mm
05:49 29.7 °F /  -1.3 °C 27.7 °F /  -2.4 °C 30.20in /  1022.6hPa Calm     92% 0.00in /  0mm
05:54 29.7 °F /  -1.3 °C 27.7 °F /  -2.4 °C 30.20in /  1022.6hPa Calm     92% 0.00in /  0mm
05:59 29.6 °F /  -1.3 °C 27.6 °F /  -2.4 °C 30.20in /  1022.6hPa Calm     92% 0.00in /  0mm
06:04 29.6 °F /  -1.3 °C 27.6 °F /  -2.4 °C 30.20in /  1022.6hPa Calm     92% 0.00in /  0mm
06:14 29.8 °F /  -1.2 °C 27.8 °F /  -2.3 °C 30.20in /  1022.6hPa Calm     92% 0.00in /  0mm
06:19 29.8 °F /  -1.2 °C 27.8 °F /  -2.3 °C 30.21in /  1022.9hPa Calm     92% 0.00in /  0mm
06:24 29.8 °F /  -1.2 °C 27.8 °F /  -2.3 °C 30.21in /  1022.9hPa Calm     92% 0.00in /  0mm
06:29 29.7 °F /  -1.3 °C 27.7 °F /  -2.4 °C 30.21in /  1022.9hPa Calm     92% 0.00in /  0mm
06:34 29.7 °F /  -1.3 °C 27.7 °F /  -2.4 °C 30.21in /  1022.9hPa Calm     92% 0.00in /  0mm
06:39 29.7 °F /  -1.3 °C 27.7 °F /  -2.4 °C 30.21in /  1022.9hPa Calm     92% 0.00in /  0mm
06:44 29.8 °F /  -1.2 °C 27.8 °F /  -2.3 °C 30.21in /  1022.9hPa Calm     92% 0.00in /  0mm
06:49 29.7 °F /  -1.3 °C 27.7 °F /  -2.4 °C 30.21in /  1022.9hPa Calm     92% 0.00in /  0mm
06:54 29.7 °F /  -1.3 °C 27.7 °F /  -2.4 °C 30.21in /  1022.9hPa Calm     92% 0.00in /  0mm
06:59 29.8 °F /  -1.2 °C 27.8 °F /  -2.3 °C 30.22in /  1023.2hPa Calm     92% 0.00in /  0mm
07:04 29.9 °F /  -1.2 °C 27.9 °F /  -2.3 °C 30.22in /  1023.2hPa Calm     92% 0.00in /  0mm
07:09 30 °F /  -1.1 °C 28 °F /  -2.2 °C 30.22in /  1023.2hPa Calm     92% 0.00in /  0mm
07:14 30.3 °F /  -0.9 °C 28.3 °F /  -2.1 °C 30.22in /  1023.2hPa Calm     92% 0.00in /  0mm
07:19 30.7 °F /  -0.7 °C 28.6 °F /  -1.9 °C 30.22in /  1023.2hPa Calm     91.8% 0.00in /  0mm
07:24 31.3 °F /  -0.4 °C 29.1 °F /  -1.6 °C 30.22in /  1023.2hPa Calm     91.6% 0.00in /  0mm
07:29 31.7 °F /  -0.2 °C 29.4 °F /  -1.4 °C 30.22in /  1023.2hPa Calm   2mph /  3.2km/h 91% 0.00in /  0mm
07:34 32 °F /  0 °C 29.8 °F /  -1.2 °C 30.22in /  1023.2hPa Calm     91.6% 0.00in /  0mm
07:39 32.4 °F /  0.2 °C 30.3 °F /  -0.9 °C 30.23in /  1023.6hPa Calm     91.8% 0.00in /  0mm
07:44 32.6 °F /  0.3 °C 30.5 °F /  -0.8 °C 30.23in /  1023.6hPa Calm     92% 0.00in /  0mm
07:49 32.9 °F /  0.5 °C 30.6 °F /  -0.8 °C 30.23in /  1023.6hPa Calm     91% 0.00in /  0mm
07:54 33.4 °F /  0.8 °C 31.2 °F /  -0.4 °C 30.23in /  1023.6hPa Calm   2mph /  3.2km/h 91.4% 0.00in /  0mm
07:59 34 °F /  1.1 °C 31.7 °F /  -0.2 °C 30.23in /  1023.6hPa Calm     91.2% 0.00in /  0mm
08:04 34.7 °F /  1.5 °C 32.6 °F /  0.3 °C 30.23in /  1023.6hPa Calm   2mph /  3.2km/h 92% 0.00in /  0mm
08:09 35.5 °F /  1.9 °C 33.4 °F /  0.8 °C 30.23in /  1023.6hPa Calm   2mph /  3.2km/h 92% 0.00in /  0mm
08:14 36.3 °F /  2.4 °C 34.2 °F /  1.2 °C 30.23in /  1023.6hPa Calm     92% 0.00in /  0mm
08:19 37 °F /  2.8 °C 34.9 °F /  1.6 °C 30.23in /  1023.6hPa Calm     92% 0.00in /  0mm
08:24 37.8 °F /  3.2 °C 35.6 °F /  2 °C 30.23in /  1023.6hPa Calm   2mph /  3.2km/h 91.6% 0.00in /  0mm
08:29 38.6 °F /  3.7 °C 36.4 °F /  2.4 °C 30.23in /  1023.6hPa Calm     91.6% 0.00in /  0mm
08:34 39.4 °F /  4.1 °C 37.3 °F /  2.9 °C 30.24in /  1023.9hPa Calm     92% 0.00in /  0mm
08:39 40.3 °F /  4.6 °C 38 °F /  3.3 °C 30.24in /  1023.9hPa Calm     91.4% 0.00in /  0mm
08:44 41 °F /  5 °C 38.5 °F /  3.6 °C 30.24in /  1023.9hPa West 1mph /  1.6km/h 5mph /  8km/h 90.6% 0.00in /  0mm
08:49 41.8 °F /  5.4 °C 39 °F /  3.9 °C 30.24in /  1023.9hPa Calm   5mph /  8km/h 89.6% 0.00in /  0mm
08:54 42.6 °F /  5.9 °C 39.4 °F /  4.1 °C 30.24in /  1023.9hPa West 0.8mph /  1.3km/h 4mph /  6.4km/h 88.6% 0.00in /  0mm
08:59 43.3 °F /  6.3 °C 39.9 °F /  4.4 °C 30.24in /  1023.9hPa Calm   4mph /  6.4km/h 87.6% 0.00in /  0mm
09:04 44.2 °F /  6.8 °C 40.4 °F /  4.7 °C 30.24in /  1023.9hPa Calm   2mph /  3.2km/h 86.4% 0.00in /  0mm
09:09 45.1 °F /  7.3 °C 40.7 °F /  4.8 °C 30.24in /  1023.9hPa Calm   4mph /  6.4km/h 84.4% 0.00in /  0mm
09:14 45.9 °F /  7.7 °C 40.6 °F /  4.8 °C 30.24in /  1023.9hPa West 0.4mph /  0.6km/h 7mph /  11.3km/h 81.8% 0.00in /  0mm
09:19 46.7 °F /  8.2 °C 40.8 °F /  4.9 °C 30.24in /  1023.9hPa Calm   2mph /  3.2km/h 80% 0.00in /  0mm
09:24 47.3 °F /  8.5 °C 40.9 °F /  4.9 °C 30.24in /  1023.9hPa Calm     78.2% 0.00in /  0mm
09:29 48.1 °F /  8.9 °C 41.2 °F /  5.1 °C 30.24in /  1023.9hPa Calm     77% 0.00in /  0mm
09:34 48.7 °F /  9.3 °C 41 °F /  5 °C 30.24in /  1023.9hPa Calm   2mph /  3.2km/h 74.6% 0.00in /  0mm
09:39 49.4 °F /  9.7 °C 40.7 °F /  4.8 °C 30.24in /  1023.9hPa Calm   2mph /  3.2km/h 71.8% 0.00in /  0mm
09:44 50 °F /  10 °C 40.4 °F /  4.7 °C 30.24in /  1023.9hPa Calm   10mph /  16.1km/h 69.6% 0.00in /  0mm
09:49 50.5 °F /  10.3 °C 40.6 °F /  4.8 °C 30.24in /  1023.9hPa Calm   10mph /  16.1km/h 68.8% 0.00in /  0mm
09:54 51.1 °F /  10.6 °C 40.7 °F /  4.8 °C 30.23in /  1023.6hPa Calm   4mph /  6.4km/h 67.4% 0.00in /  0mm
09:59 51.5 °F /  10.8 °C 39.9 °F /  4.4 °C 30.23in /  1023.6hPa Calm   4mph /  6.4km/h 64.4% 0.00in /  0mm
10:04 52 °F /  11.1 °C 40.4 °F /  4.7 °C 30.23in /  1023.6hPa Calm     64.6% 0.00in /  0mm
10:09 52.6 °F /  11.4 °C 40.3 °F /  4.6 °C 30.23in /  1023.6hPa Calm   2mph /  3.2km/h 63% 0.00in /  0mm
10:14 53.1 °F /  11.7 °C 40.2 °F /  4.6 °C 30.23in /  1023.6hPa SSW 0.4mph /  0.6km/h 2mph /  3.2km/h 61.6% 0.00in /  0mm
10:19 53.3 °F /  11.8 °C 39.7 °F /  4.3 °C 30.23in /  1023.6hPa Calm   2mph /  3.2km/h 59.8% 0.00in /  0mm
10:24 53.6 °F /  12 °C 40 °F /  4.4 °C 30.23in /  1023.6hPa SSW 1mph /  1.6km/h 5mph /  8km/h 59.8% 0.00in /  0mm
10:29 53.9 °F /  12.2 °C 39.4 °F /  4.1 °C 30.22in /  1023.2hPa Calm   2mph /  3.2km/h 57.8% 0.00in /  0mm
10:34 54 °F /  12.2 °C 38.8 °F /  3.8 °C 30.22in /  1023.2hPa Calm   2mph /  3.2km/h 56.4% 0.00in /  0mm
10:39 54.4 °F /  12.4 °C 39.6 °F /  4.2 °C 30.22in /  1023.2hPa Calm   2mph /  3.2km/h 57.4% 0.00in /  0mm
10:44 54.8 °F /  12.7 °C 39.7 °F /  4.3 °C 30.22in /  1023.2hPa Calm     56.6% 0.00in /  0mm
10:49 55.3 °F /  12.9 °C 39.8 °F /  4.3 °C 30.22in /  1023.2hPa Calm   2mph /  3.2km/h 55.8% 0.00in /  0mm
10:54 55.6 °F /  13.1 °C 39.6 °F /  4.2 °C 30.22in /  1023.2hPa Calm   2mph /  3.2km/h 54.8% 0.00in /  0mm
10:59 55.9 °F /  13.3 °C 39.8 °F /  4.3 °C 30.22in /  1023.2hPa Calm   2mph /  3.2km/h 54.6% 0.00in /  0mm
11:04 56.4 °F /  13.6 °C 39.6 °F /  4.2 °C 30.21in /  1022.9hPa Calm   2mph /  3.2km/h 53.2% 0.00in /  0mm
11:09 56.7 °F /  13.7 °C 38.9 °F /  3.8 °C 30.21in /  1022.9hPa Calm     51.2% 0.00in /  0mm
11:14 57 °F /  13.9 °C 39 °F /  3.9 °C 30.21in /  1022.9hPa Calm     51% 0.00in /  0mm
11:19 57.5 °F /  14.2 °C 38.9 °F /  3.8 °C 30.21in /  1022.9hPa Calm     49.8% 0.00in /  0mm
11:24 57.7 °F /  14.3 °C 38.9 °F /  3.8 °C 30.21in /  1022.9hPa Calm   2mph /  3.2km/h 49.4% 0.00in /  0mm
11:29 57.8 °F /  14.3 °C 39.1 °F /  3.9 °C 30.20in /  1022.6hPa Calm   2mph /  3.2km/h 49.6% 0.00in /  0mm
11:34 58.9 °F /  14.9 °C 40 °F /  4.4 °C 30.20in /  1022.6hPa Calm   2mph /  3.2km/h 49.6% 0.00in /  0mm
11:39 59.6 °F /  15.3 °C 39 °F /  3.9 °C 30.20in /  1022.6hPa Calm     46.4% 0.00in /  0mm
11:44 59.8 °F /  15.4 °C 39.4 °F /  4.1 °C 30.20in /  1022.6hPa Calm   2mph /  3.2km/h 46.8% 0.00in /  0mm
11:49 59.8 °F /  15.4 °C 39 °F /  3.9 °C 30.20in /  1022.6hPa Calm   2mph /  3.2km/h 46% 0.00in /  0mm
11:54 60 °F /  15.6 °C 38 °F /  3.3 °C 30.20in /  1022.6hPa Calm   2mph /  3.2km/h 44% 0.00in /  0mm
11:59 60.5 °F /  15.8 °C 38 °F /  3.3 °C 30.20in /  1022.6hPa Calm   2mph /  3.2km/h 43.2% 0.00in /  0mm
12:04 60.7 °F /  15.9 °C 37.9 °F /  3.3 °C 30.19in /  1022.2hPa South 0.4mph /  0.6km/h 4mph /  6.4km/h 42.8% 0.00in /  0mm
12:09 61.2 °F /  16.2 °C 38.2 °F /  3.4 °C 30.19in /  1022.2hPa SE 0.4mph /  0.6km/h 7mph /  11.3km/h 42.6% 0.00in /  0mm
12:14 61.6 °F /  16.4 °C 36.9 °F /  2.7 °C 30.19in /  1022.2hPa Calm     39.8% 0.00in /  0mm
12:19 62.2 °F /  16.8 °C 37.2 °F /  2.9 °C 30.18in /  1021.9hPa Calm   4mph /  6.4km/h 39.4% 0.00in /  0mm
12:24 62.5 °F /  16.9 °C 36 °F /  2.2 °C 30.18in /  1021.9hPa SSE 0.4mph /  0.6km/h 5mph /  8km/h 37.2% 0.00in /  0mm
12:29 62.7 °F /  17.1 °C 36.4 °F /  2.4 °C 30.18in /  1021.9hPa WSW 0.4mph /  0.6km/h 5mph /  8km/h 37.6% 0.00in /  0mm
12:34 63 °F /  17.2 °C 34.9 °F /  1.6 °C 30.18in /  1021.9hPa Calm   2mph /  3.2km/h 35% 0.00in /  0mm
12:39 63.1 °F /  17.3 °C 33.1 °F /  0.6 °C 30.18in /  1021.9hPa WNW 0.4mph /  0.6km/h 4mph /  6.4km/h 32.4% 0.00in /  0mm
12:44 63.3 °F /  17.4 °C 32.9 °F /  0.5 °C 30.17in /  1021.6hPa Calm     32% 0.00in /  0mm
12:49 63.5 °F /  17.5 °C 34.3 °F /  1.3 °C 30.17in /  1021.6hPa Calm   2mph /  3.2km/h 33.6% 0.00in /  0mm
12:54 63.6 °F /  17.6 °C 34.3 °F /  1.3 °C 30.16in /  1021.2hPa WNW 2.2mph /  3.5km/h 7mph /  11.3km/h 33.4% 0.00in /  0mm
12:59 63.6 °F /  17.6 °C 34.2 °F /  1.2 °C 30.16in /  1021.2hPa South 1.2mph /  1.9km/h 7mph /  11.3km/h 33.4% 0.00in /  0mm
13:04 64.1 °F /  17.8 °C 35 °F /  1.7 °C 30.16in /  1021.2hPa Calm   10mph /  16.1km/h 33.8% 0.00in /  0mm
13:09 64.5 °F /  18.1 °C 33.6 °F /  0.9 °C 30.15in /  1020.9hPa SSE 0.4mph /  0.6km/h 2mph /  3.2km/h 31.4% 0.00in /  0mm
13:14 64.6 °F /  18.1 °C 33.6 °F /  0.9 °C 30.15in /  1020.9hPa WNW 1mph /  1.6km/h 9mph /  14.5km/h 31.4% 0.00in /  0mm
13:19 64.3 °F /  17.9 °C 33.5 °F /  0.8 °C 30.15in /  1020.9hPa West 0.4mph /  0.6km/h 2mph /  3.2km/h 31.6% 0.00in /  0mm
13:24 64.2 °F /  17.9 °C 33 °F /  0.6 °C 30.15in /  1020.9hPa Calm   2mph /  3.2km/h 31.2% 0.00in /  0mm
13:29 63.7 °F /  17.6 °C 32 °F /  0 °C 30.15in /  1020.9hPa Calm   2mph /  3.2km/h 30.4% 0.00in /  0mm
13:34 63.7 °F /  17.6 °C 31.7 °F /  -0.2 °C 30.14in /  1020.5hPa Calm   5mph /  8km/h 30% 0.00in /  0mm
13:39 64 °F /  17.8 °C 32.5 °F /  0.3 °C 30.14in /  1020.5hPa Calm   5mph /  8km/h 30.8% 0.00in /  0mm
13:44 64.7 °F /  18.2 °C 33.9 °F /  1.1 °C 30.14in /  1020.5hPa Calm     31.8% 0.00in /  0mm
13:49 65 °F /  18.3 °C 34.9 °F /  1.6 °C 30.14in /  1020.5hPa Calm     32.6% 0.00in /  0mm
13:54 64.9 °F /  18.3 °C 34.6 °F /  1.4 °C 30.14in /  1020.5hPa Calm     32.4% 0.00in /  0mm
13:59 65.2 °F /  18.4 °C 35.5 °F /  1.9 °C 30.14in /  1020.5hPa Calm     33.2% 0.00in /  0mm
14:04 65.6 °F /  18.7 °C 36.5 °F /  2.5 °C 30.13in /  1020.2hPa SW 0.8mph /  1.3km/h 7mph /  11.3km/h 34% 0.00in /  0mm
14:09 65.6 °F /  18.7 °C 36.8 °F /  2.7 °C 30.13in /  1020.2hPa SW 0.4mph /  0.6km/h 7mph /  11.3km/h 34.4% 0.00in /  0mm
14:14 65.8 °F /  18.8 °C 36.4 °F /  2.4 °C 30.13in /  1020.2hPa Calm   5mph /  8km/h 33.6% 0.00in /  0mm
14:19 66 °F /  18.9 °C 36.3 °F /  2.4 °C 30.13in /  1020.2hPa Calm   4mph /  6.4km/h 33.4% 0.00in /  0mm
14:24 66.5 °F /  19.2 °C 36.2 °F /  2.3 °C 30.13in /  1020.2hPa Calm   2mph /  3.2km/h 32.7% 0.00in /  0mm
14:29 67 °F /  19.4 °C 36.8 °F /  2.7 °C 30.13in /  1020.2hPa Calm     32.8% 0.00in /  0mm
14:34 67.3 °F /  19.6 °C 36.2 °F /  2.3 °C 30.13in /  1020.2hPa Calm   7mph /  11.3km/h 31.8% 0.00in /  0mm
14:44 67.5 °F /  19.7 °C 37.3 °F /  2.9 °C 30.13in /  1020.2hPa Calm     32.8% 0.00in /  0mm
14:49 67.2 °F /  19.6 °C 36.5 °F /  2.5 °C 30.13in /  1020.2hPa Calm     32.2% 0.00in /  0mm
14:54 67.2 °F /  19.6 °C 37.1 °F /  2.8 °C 30.13in /  1020.2hPa Calm     33% 0.00in /  0mm
14:59 66.7 °F /  19.3 °C 36.1 °F /  2.3 °C 30.13in /  1020.2hPa Calm   7mph /  11.3km/h 32.2% 0.00in /  0mm
15:04 66.5 °F /  19.2 °C 36 °F /  2.2 °C 30.12in /  1019.9hPa Calm     32.4% 0.00in /  0mm
15:09 66.5 °F /  19.2 °C 35.4 °F /  1.9 °C 30.12in /  1019.9hPa Calm   2mph /  3.2km/h 31.6% 0.00in /  0mm
15:14 66.3 °F /  19.1 °C 35.1 °F /  1.7 °C 30.12in /  1019.9hPa WNW 1.8mph /  2.9km/h 7mph /  11.3km/h 31.4% 0.00in /  0mm
15:19 66.6 °F /  19.2 °C 36 °F /  2.2 °C 30.12in /  1019.9hPa Calm   7mph /  11.3km/h 32.2% 0.00in /  0mm
15:24 67.1 °F /  19.5 °C 36.9 °F /  2.7 °C 30.12in /  1019.9hPa Calm     32.8% 0.00in /  0mm
15:29 67 °F /  19.4 °C 37.2 °F /  2.9 °C 30.12in /  1019.9hPa Calm     33.4% 0.00in /  0mm
15:34 67 °F /  19.4 °C 36.9 °F /  2.7 °C 30.12in /  1019.9hPa SW 1.8mph /  2.9km/h 7mph /  11.3km/h 33% 0.00in /  0mm
15:39 67.3 °F /  19.6 °C 36.6 °F /  2.6 °C 30.12in /  1019.9hPa SSW 1.4mph /  2.3km/h 10mph /  16.1km/h 32.2% 0.00in /  0mm
15:44 67.2 °F /  19.6 °C 36 °F /  2.2 °C 30.11in /  1019.5hPa Calm     31.6% 0.00in /  0mm
15:49 67.4 °F /  19.7 °C 36.1 °F /  2.3 °C 30.11in /  1019.5hPa Calm     31.4% 0.00in /  0mm
15:54 68 °F /  20 °C 36.5 °F /  2.5 °C 30.11in /  1019.5hPa Calm     31.4% 0.00in /  0mm
16:04 67.9 °F /  19.9 °C 36.9 °F /  2.7 °C 30.11in /  1019.5hPa Calm   2mph /  3.2km/h 32% 0.00in /  0mm
16:09 67.7 °F /  19.8 °C 37.1 °F /  2.8 °C 30.11in /  1019.5hPa Calm   4mph /  6.4km/h 32.4% 0.00in /  0mm
16:14 68 °F /  20 °C 37.5 °F /  3.1 °C 30.11in /  1019.5hPa Calm   4mph /  6.4km/h 32.6% 0.00in /  0mm
16:19 68.2 °F /  20.1 °C 37.8 °F /  3.2 °C 30.11in /  1019.5hPa Calm     32.8% 0.00in /  0mm
16:24 67.9 °F /  19.9 °C 36.7 °F /  2.6 °C 30.11in /  1019.5hPa Calm     31.8% 0.00in /  0mm
16:29 67.7 °F /  19.8 °C 36.9 °F /  2.7 °C 30.11in /  1019.5hPa Calm     32.2% 0.00in /  0mm
16:34 67.6 °F /  19.8 °C 36.7 °F /  2.6 °C 30.11in /  1019.5hPa Calm     32% 0.00in /  0mm
16:39 67.2 °F /  19.6 °C 36.5 °F /  2.5 °C 30.11in /  1019.5hPa Calm     32.2% 0.00in /  0mm
16:44 67 °F /  19.4 °C 36.3 °F /  2.4 °C 30.11in /  1019.5hPa Calm   2mph /  3.2km/h 32.2% 0.00in /  0mm
16:49 67 °F /  19.4 °C 36.3 °F /  2.4 °C 30.11in /  1019.5hPa Calm   2mph /  3.2km/h 32.2% 0.00in /  0mm
16:54 66.9 °F /  19.4 °C 35.9 °F /  2.2 °C 30.11in /  1019.5hPa Calm   2mph /  3.2km/h 31.8% 0.00in /  0mm
16:59 66.8 °F /  19.3 °C 36.3 °F /  2.4 °C 30.11in /  1019.5hPa Calm   4mph /  6.4km/h 32.4% 0.00in /  0mm
17:04 66.4 °F /  19.1 °C 36 °F /  2.2 °C 30.11in /  1019.5hPa Calm   2mph /  3.2km/h 32.4% 0.00in /  0mm
17:09 66.1 °F /  18.9 °C 35.4 °F /  1.9 °C 30.11in /  1019.5hPa Calm   7mph /  11.3km/h 32% 0.00in /  0mm
17:14 65.9 °F /  18.8 °C 36.4 °F /  2.4 °C 30.11in /  1019.5hPa Calm   4mph /  6.4km/h 33.6% 0.00in /  0mm
17:19 65.7 °F /  18.7 °C 35.8 °F /  2.1 °C 30.11in /  1019.5hPa Calm   4mph /  6.4km/h 33% 0.00in /  0mm
17:24 65.6 °F /  18.7 °C 36.6 °F /  2.6 °C 30.11in /  1019.5hPa Calm   2mph /  3.2km/h 34.2% 0.00in /  0mm
17:29 65.6 °F /  18.7 °C 37.4 °F /  3 °C 30.11in /  1019.5hPa Calm   4mph /  6.4km/h 35.4% 0.00in /  0mm
17:34 65.3 °F /  18.5 °C 37.9 °F /  3.3 °C 30.11in /  1019.5hPa SSW 1.4mph /  2.3km/h 7mph /  11.3km/h 36.4% 0.00in /  0mm
17:39 65 °F /  18.3 °C 37.8 °F /  3.2 °C 30.11in /  1019.5hPa Calm   7mph /  11.3km/h 36.6% 0.00in /  0mm
17:44 64.6 °F /  18.1 °C 38.4 °F /  3.6 °C 30.11in /  1019.5hPa Calm   9mph /  14.5km/h 38% 0.00in /  0mm
17:49 64 °F /  17.8 °C 38.3 °F /  3.5 °C 30.11in /  1019.5hPa Calm   9mph /  14.5km/h 38.6% 0.00in /  0mm
17:54 63.7 °F /  17.6 °C 38.1 °F /  3.4 °C 30.11in /  1019.5hPa Calm   9mph /  14.5km/h 38.8% 0.00in /  0mm
17:59 63.4 °F /  17.4 °C 38.3 °F /  3.5 °C 30.11in /  1019.5hPa Calm   9mph /  14.5km/h 39.4% 0.00in /  0mm
18:04 63.1 °F /  17.3 °C 37.8 °F /  3.2 °C 30.11in /  1019.5hPa Calm   2mph /  3.2km/h 39.2% 0.00in /  0mm
18:09 62.8 °F /  17.1 °C 38.5 °F /  3.6 °C 30.11in /  1019.5hPa Calm   2mph /  3.2km/h 40.6% 0.00in /  0mm
18:14 62.4 °F /  16.9 °C 38.4 °F /  3.6 °C 30.11in /  1019.5hPa Calm     41% 0.00in /  0mm
18:19 62.1 °F /  16.7 °C 38.1 °F /  3.4 °C 30.11in /  1019.5hPa Calm     41% 0.00in /  0mm
18:24 61.7 °F /  16.5 °C 37.7 °F /  3.2 °C 30.11in /  1019.5hPa Calm   2mph /  3.2km/h 41% 0.00in /  0mm
18:29 61.4 °F /  16.3 °C 37.5 °F /  3.1 °C 30.12in /  1019.9hPa Calm     41% 0.00in /  0mm
18:34 61.1 °F /  16.2 °C 37.4 °F /  3 °C 30.12in /  1019.9hPa SSE 0.4mph /  0.6km/h 2mph /  3.2km/h 41.2% 0.00in /  0mm
18:39 60.9 °F /  16.1 °C 37.6 °F /  3.1 °C 30.12in /  1019.9hPa SSE 0.4mph /  0.6km/h 2mph /  3.2km/h 42% 0.00in /  0mm
18:44 60.7 °F /  15.9 °C 37.8 °F /  3.2 °C 30.12in /  1019.9hPa Calm   2mph /  3.2km/h 42.6% 0.00in /  0mm
18:49 60.2 °F /  15.7 °C 38.2 °F /  3.4 °C 30.12in /  1019.9hPa Calm     44% 0.00in /  0mm
18:54 59.5 °F /  15.3 °C 38.4 °F /  3.6 °C 30.12in /  1019.9hPa Calm     45.6% 0.00in /  0mm
18:59 58.7 °F /  14.8 °C 38.4 °F /  3.6 °C 30.12in /  1019.9hPa Calm     46.8% 0.00in /  0mm
19:04 58.1 °F /  14.5 °C 38.3 °F /  3.5 °C 30.12in /  1019.9hPa Calm     47.8% 0.00in /  0mm
19:09 57.5 °F /  14.2 °C 38.5 °F /  3.6 °C 30.12in /  1019.9hPa Calm     49% 0.00in /  0mm
19:14 57 °F /  13.9 °C 38.1 °F /  3.4 °C 30.12in /  1019.9hPa Calm     49.2% 0.00in /  0mm
19:19 56.6 °F /  13.7 °C 38.2 °F /  3.4 °C 30.12in /  1019.9hPa Calm     50% 0.00in /  0mm
19:24 56.2 °F /  13.4 °C 37.8 °F /  3.2 °C 30.12in /  1019.9hPa Calm     50% 0.00in /  0mm
19:29 55.9 °F /  13.3 °C 38 °F /  3.3 °C 30.12in /  1019.9hPa Calm     51% 0.00in /  0mm
19:34 55.4 °F /  13 °C 38.3 °F /  3.5 °C 30.12in /  1019.9hPa Calm     52.4% 0.00in /  0mm
19:39 55.1 °F /  12.8 °C 38.1 °F /  3.4 °C 30.12in /  1019.9hPa Calm     52.6% 0.00in /  0mm
19:44 54.9 °F /  12.7 °C 38 °F /  3.3 °C 30.13in /  1020.2hPa Calm     52.8% 0.00in /  0mm
19:49 54.7 °F /  12.6 °C 37.4 °F /  3 °C 30.13in /  1020.2hPa Calm     52% 0.00in /  0mm
19:54 54.8 °F /  12.7 °C 37.5 °F /  3.1 °C 30.13in /  1020.2hPa Calm     52% 0.00in /  0mm
19:59 54.9 °F /  12.7 °C 37.6 °F /  3.1 °C 30.13in /  1020.2hPa Calm     52% 0.00in /  0mm
20:04 54.9 °F /  12.7 °C 37.6 °F /  3.1 °C 30.13in /  1020.2hPa Calm     52% 0.00in /  0mm
20:09 54.7 °F /  12.6 °C 37.7 °F /  3.2 °C 30.13in /  1020.2hPa Calm     52.6% 0.00in /  0mm
20:14 54.4 °F /  12.4 °C 37.9 °F /  3.3 °C 30.13in /  1020.2hPa Calm     53.6% 0.00in /  0mm
20:19 53.9 °F /  12.2 °C 37.6 °F /  3.1 °C 30.13in /  1020.2hPa Calm     54% 0.00in /  0mm
20:24 53.5 °F /  11.9 °C 37.9 °F /  3.3 °C 30.14in /  1020.5hPa Calm     55.4% 0.00in /  0mm
20:29 52.8 °F /  11.6 °C 37.7 °F /  3.2 °C 30.14in /  1020.5hPa Calm     56.4% 0.00in /  0mm
20:34 52.1 °F /  11.2 °C 37.2 °F /  2.9 °C 30.14in /  1020.5hPa Calm     56.6% 0.00in /  0mm
20:39 51.7 °F /  10.9 °C 36.9 °F /  2.7 °C 30.14in /  1020.5hPa Calm     57% 0.00in /  0mm
20:44 51.2 °F /  10.7 °C 36.6 °F /  2.6 °C 30.14in /  1020.5hPa Calm     57.2% 0.00in /  0mm
20:49 50.7 °F /  10.4 °C 36.9 °F /  2.7 °C 30.14in /  1020.5hPa Calm     59% 0.00in /  0mm
20:59 49.7 °F /  9.8 °C 36.8 °F /  2.7 °C 30.15in /  1020.9hPa Calm     61% 0.00in /  0mm
21:04 49.3 °F /  9.6 °C 37.2 °F /  2.9 °C 30.15in /  1020.9hPa Calm     63% 0.00in /  0mm
21:09 49 °F /  9.4 °C 37.2 °F /  2.9 °C 30.15in /  1020.9hPa Calm     63.8% 0.00in /  0mm
21:14 48.6 °F /  9.2 °C 37.1 °F /  2.8 °C 30.16in /  1021.2hPa Calm     64.2% 0.00in /  0mm
21:19 48.2 °F /  9 °C 37.2 °F /  2.9 °C 30.16in /  1021.2hPa Calm     65.4% 0.00in /  0mm
21:24 47.9 °F /  8.8 °C 37.6 °F /  3.1 °C 30.16in /  1021.2hPa Calm     67.2% 0.00in /  0mm
21:29 47.6 °F /  8.7 °C 37.8 °F /  3.2 °C 30.16in /  1021.2hPa Calm     68.6% 0.00in /  0mm
21:34 47.4 °F /  8.6 °C 37.8 °F /  3.2 °C 30.16in /  1021.2hPa Calm     69.2% 0.00in /  0mm
21:39 47.1 °F /  8.4 °C 37.8 °F /  3.2 °C 30.17in /  1021.6hPa Calm     70% 0.00in /  0mm
21:44 46.8 °F /  8.2 °C 37.6 °F /  3.1 °C 30.17in /  1021.6hPa Calm     70.2% 0.00in /  0mm
21:49 46.5 °F /  8.1 °C 38.2 °F /  3.4 °C 30.17in /  1021.6hPa Calm     72.6% 0.00in /  0mm
Compliments of Weather Underground - 4 mb